Time;durP1;ratioP1;P1;durP2;ratioP2;P2;SDS_P1;SDS_P2;PMS_P1;PMS_P2;Temp;Humidity;BMP_temperature;BMP_pressure;BME280_temperature;BME280_humidity;BME280_pressure;Samples;Min_cycle;Max_cycle;Signal;HPM_P1;HPM_P2
2023/06/01 00:00:31;;;;;;;8.50;4.60;;;17.60;99.90;;;;;;5044783;28;20190;-81
2023/06/01 00:02:57;;;;;;;10.10;5.63;;;17.60;99.90;;;;;;5025062;28;20193;-79
2023/06/01 00:05:22;;;;;;;9.10;4.83;;;17.50;99.90;;;;;;5032933;28;20194;-79
2023/06/01 00:07:48;;;;;;;7.70;5.37;;;17.50;99.90;;;;;;5032986;28;20179;-81
2023/06/01 00:10:13;;;;;;;23.27;5.30;;;17.40;99.90;;;;;;5022673;28;20217;-80
2023/06/01 00:12:39;;;;;;;7.03;4.97;;;17.40;99.90;;;;;;5043119;28;20200;-81
2023/06/01 00:15:06;;;;;;;10.40;5.90;;;17.40;99.90;;;;;;5043818;28;20257;-82
2023/06/01 00:17:32;;;;;;;9.27;6.57;;;17.30;99.90;;;;;;5029149;28;20482;-79
2023/06/01 00:20:00;;;;;;;16.27;7.00;;;17.30;99.90;;;;;;5041326;28;20444;-81
2023/06/01 00:22:34;;;;;;;8.20;5.83;;;17.30;99.90;;;;;;5027822;28;20200;-78
2023/06/01 00:25:00;;;;;;;8.37;5.20;;;17.20;99.90;;;;;;5027730;28;20914;-78
2023/06/01 00:27:25;;;;;;;12.27;6.33;;;17.10;99.90;;;;;;5044358;28;21003;-81
2023/06/01 00:29:51;;;;;;;7.87;5.70;;;17.10;99.90;;;;;;5038084;28;20433;-82
2023/06/01 00:32:16;;;;;;;12.33;5.80;;;17.00;99.90;;;;;;5047433;28;20245;-80
2023/06/01 00:34:42;;;;;;;7.83;5.27;;;17.00;99.90;;;;;;5043975;28;20224;-80
2023/06/01 00:37:07;;;;;;;8.90;5.50;;;17.00;99.90;;;;;;5046817;28;20205;-80
2023/06/01 00:39:33;;;;;;;9.77;6.43;;;16.90;99.90;;;;;;5046700;28;20784;-80
2023/06/01 00:41:58;;;;;;;9.93;5.33;;;16.90;99.90;;;;;;5026908;28;20264;-81
2023/06/01 00:44:24;;;;;;;15.23;6.30;;;16.80;99.90;;;;;;5029001;28;20186;-81
2023/06/01 00:46:50;;;;;;;9.80;6.27;;;16.80;1.00;;;;;;5046695;28;20788;-80
2023/06/01 00:49:16;;;;;;;8.83;5.93;;;16.70;1.00;;;;;;5042209;28;20204;-81
2023/06/01 00:51:41;;;;;;;9.67;6.73;;;16.70;1.00;;;;;;5028819;28;20472;-80
2023/06/01 00:54:07;;;;;;;10.20;6.23;;;16.60;1.00;;;;;;5041743;28;20232;-80
2023/06/01 00:56:35;;;;;;;11.87;6.83;;;16.60;1.00;;;;;;5045233;28;20208;-80
2023/06/01 00:59:01;;;;;;;13.27;7.40;;;16.60;1.00;;;;;;5041348;28;20435;-80
2023/06/01 01:01:26;;;;;;;12.00;6.07;;;16.60;1.00;;;;;;5045056;28;20444;-79
2023/06/01 01:03:57;;;;;;;13.10;7.10;;;16.50;1.00;;;;;;5038640;28;20189;-78
2023/06/01 01:07:00;;;;;;;15.83;6.57;;;16.50;1.00;;;;;;5027740;28;20450;-80
2023/06/01 01:09:49;;;;;;;9.40;6.40;;;16.50;1.00;;;;;;5045129;28;20540;-80
2023/06/01 01:12:23;;;;;;;13.83;7.70;;;16.40;1.00;;;;;;5040998;28;20459;-79
2023/06/01 01:14:51;;;;;;;11.37;6.70;;;16.40;1.00;;;;;;5029072;28;20440;-79
2023/06/01 01:17:47;;;;;;;11.30;6.80;;;16.40;1.00;;;;;;5047013;28;20473;-79
2023/06/01 01:20:26;;;;;;;12.23;6.87;;;16.30;1.00;;;;;;5040780;28;20446;-79
2023/06/01 01:23:16;;;;;;;12.80;7.50;;;16.30;1.00;;;;;;5030195;28;20470;-80
2023/06/01 01:25:51;;;;;;;15.87;7.50;;;16.20;1.00;;;;;;5034615;28;20503;-80
2023/06/01 01:28:37;;;;;;;13.80;7.50;;;16.20;1.00;;;;;;5029415;28;20520;-80
2023/06/01 01:31:05;;;;;;;15.80;7.90;;;16.10;1.00;;;;;;5019446;28;20485;-82
2023/06/01 01:33:32;;;;;;;11.10;7.50;;;16.10;1.00;;;;;;5035471;28;20454;-79
2023/06/01 01:36:00;;;;;;;12.47;7.47;;;16.10;1.00;;;;;;5043082;28;20969;-80
2023/06/01 01:38:25;;;;;;;16.53;7.90;;;16.10;1.00;;;;;;5046345;28;20483;-79
2023/06/01 01:40:52;;;;;;;10.20;8.60;;;16.00;1.00;;;;;;5045905;28;20451;-78
2023/06/01 01:43:19;;;;;;;17.40;8.47;;;16.00;4.70;;;;;;5043645;28;20203;-79
2023/06/01 01:45:53;;;;;;;13.10;8.70;;;15.90;24.80;;;;;;5038052;28;20460;-79
2023/06/01 01:48:52;;;;;;;14.77;9.40;;;15.90;40.30;;;;;;5028866;28;20960;-81
2023/06/01 01:51:27;;;;;;;14.27;8.90;;;15.80;97.30;;;;;;5040492;28;20467;-79
2023/06/01 01:53:54;;;;;;;13.20;8.83;;;15.80;99.90;;;;;;5043511;28;20431;-79
2023/06/01 01:56:21;;;;;;;12.40;9.20;;;15.70;99.90;;;;;;5040275;28;20455;-80
2023/06/01 01:58:49;;;;;;;15.00;9.63;;;15.70;99.90;;;;;;5045907;28;20438;-80
2023/06/01 02:01:16;;;;;;;17.27;9.90;;;15.60;99.90;;;;;;5028216;28;20449;-78
2023/06/01 02:03:41;;;;;;;15.83;9.70;;;15.60;99.90;;;;;;5046508;28;20443;-79
2023/06/01 02:06:07;;;;;;;14.60;9.70;;;15.50;99.90;;;;;;5043526;28;20467;-80
2023/06/01 02:08:32;;;;;;;11.20;8.73;;;15.50;99.90;;;;;;5039473;28;20191;-80
2023/06/01 02:10:58;;;;;;;15.10;9.90;;;15.50;99.90;;;;;;5032527;28;20271;-79
2023/06/01 02:13:23;;;;;;;13.93;9.70;;;15.40;99.90;;;;;;5028084;28;20191;-80
2023/06/01 02:15:50;;;;;;;17.53;9.37;;;15.40;99.90;;;;;;5042426;28;20290;-80
2023/06/01 02:18:17;;;;;;;14.57;10.63;;;15.40;99.90;;;;;;5037947;28;20486;-80
2023/06/01 02:20:43;;;;;;;17.07;10.50;;;15.30;99.90;;;;;;5045737;28;20181;-81
2023/06/01 02:23:09;;;;;;;13.87;10.90;;;15.30;99.90;;;;;;5041460;28;20426;-80
2023/06/01 02:25:34;;;;;;;19.33;12.50;;;15.30;99.90;;;;;;5042478;28;20489;-79
2023/06/01 02:28:01;;;;;;;16.90;9.70;;;15.20;99.90;;;;;;5027431;28;20219;-79
2023/06/01 02:30:27;;;;;;;14.53;10.63;;;15.20;99.90;;;;;;5038148;28;20232;-81
2023/06/01 02:32:52;;;;;;;13.10;10.00;;;15.10;99.90;;;;;;5041311;28;20445;-80
2023/06/01 02:35:18;;;;;;;17.70;10.47;;;15.10;1.00;;;;;;5042711;28;20193;-81
2023/06/01 02:37:43;;;;;;;15.13;9.97;;;15.00;1.00;;;;;;5039260;28;20210;-78
2023/06/01 02:40:12;;;;;;;18.20;10.70;;;15.00;1.00;;;;;;5043504;28;20203;-79
2023/06/01 02:42:38;;;;;;;17.13;9.80;;;14.90;1.00;;;;;;5033724;28;20188;-78
2023/06/01 02:45:07;;;;;;;20.77;11.40;;;14.90;1.00;;;;;;5027060;28;20480;-80
2023/06/01 02:47:33;;;;;;;15.27;10.50;;;14.90;1.00;;;;;;5041199;28;20501;-80
2023/06/01 02:49:58;;;;;;;21.43;12.67;;;14.80;1.00;;;;;;5039093;28;20512;-80
2023/06/01 02:52:24;;;;;;;19.57;11.60;;;14.80;1.00;;;;;;5027036;28;20190;-81
2023/06/01 02:54:50;;;;;;;20.63;11.67;;;14.70;1.00;;;;;;5026047;28;20188;-80
2023/06/01 02:57:15;;;;;;;23.37;11.30;;;14.70;36.10;;;;;;5026556;28;20501;-80
2023/06/01 02:59:41;;;;;;;21.43;11.23;;;14.60;93.60;;;;;;5038463;28;20199;-79
2023/06/01 03:02:06;;;;;;;18.03;13.07;;;14.60;99.90;;;;;;5019397;28;20236;-78
2023/06/01 03:04:32;;;;;;;18.23;12.10;;;14.50;99.90;;;;;;5035877;28;20224;-80
2023/06/01 03:06:58;;;;;;;19.37;11.80;;;14.50;99.90;;;;;;5037850;28;20207;-82
2023/06/01 03:09:24;;;;;;;20.90;11.43;;;14.50;99.90;;;;;;5045455;28;20193;-81
2023/06/01 03:11:50;;;;;;;16.30;10.00;;;14.40;99.90;;;;;;5044946;28;20476;-81
2023/06/01 03:14:16;;;;;;;24.87;11.37;;;14.40;99.90;;;;;;5038323;28;20453;-80
2023/06/01 03:16:41;;;;;;;22.47;12.17;;;14.30;99.90;;;;;;5037019;28;20214;-80
2023/06/01 03:19:07;;;;;;;23.73;14.60;;;14.30;99.90;;;;;;5040497;28;20182;-79
2023/06/01 03:21:32;;;;;;;23.20;12.30;;;14.30;99.90;;;;;;5039044;28;20255;-80
2023/06/01 03:23:58;;;;;;;18.23;11.47;;;14.20;1.00;;;;;;5036695;28;20825;-80
2023/06/01 03:26:24;;;;;;;21.47;13.43;;;14.20;1.00;;;;;;5024645;28;20231;-80
2023/06/01 03:28:50;;;;;;;17.90;12.87;;;14.20;1.00;;;;;;5024897;28;20187;-80
2023/06/01 03:31:16;;;;;;;25.23;13.80;;;14.10;1.00;;;;;;5024256;28;20501;-82
2023/06/01 03:33:42;;;;;;;18.40;12.03;;;14.10;1.00;;;;;;5036919;28;20178;-80
2023/06/01 03:36:07;;;;;;;24.50;13.37;;;14.10;1.00;;;;;;5031895;28;20476;-79
2023/06/01 03:38:36;;;;;;;19.30;12.93;;;14.10;1.00;;;;;;5035474;28;20206;-78
2023/06/01 03:41:02;;;;;;;19.33;12.67;;;14.00;1.00;;;;;;5038022;28;20186;-81
2023/06/01 03:43:27;;;;;;;23.00;13.37;;;14.00;1.00;;;;;;5044925;28;20441;-79
2023/06/01 03:45:53;;;;;;;17.17;12.50;;;14.00;1.00;;;;;;5043924;28;20206;-80
2023/06/01 03:48:18;;;;;;;20.40;12.80;;;14.00;1.00;;;;;;5025324;28;20190;-81
2023/06/01 03:50:44;;;;;;;29.50;13.60;;;14.00;1.00;;;;;;5039628;28;20218;-80
2023/06/01 03:53:10;;;;;;;23.93;13.37;;;14.00;1.00;;;;;;5043863;28;20188;-81
2023/06/01 03:55:35;;;;;;;20.80;13.80;;;14.10;1.00;;;;;;5042647;28;20472;-80
2023/06/01 03:58:02;;;;;;;23.03;12.23;;;14.10;1.00;;;;;;5027586;28;20179;-80
2023/06/01 04:00:28;;;;;;;19.37;13.37;;;14.10;1.00;;;;;;5041749;28;20191;-80
2023/06/01 04:02:56;;;;;;;19.70;13.17;;;14.10;1.00;;;;;;5032142;28;20429;-81
2023/06/01 04:05:24;;;;;;;28.10;15.07;;;14.20;1.00;;;;;;5041056;28;20197;-80
2023/06/01 04:07:52;;;;;;;31.27;16.23;;;14.20;1.00;;;;;;5038788;28;20438;-81
2023/06/01 04:10:18;;;;;;;30.20;17.70;;;14.20;1.00;;;;;;5042963;28;20475;-82
2023/06/01 04:12:45;;;;;;;37.13;20.03;;;14.20;1.00;;;;;;5049463;28;20429;-83
2023/06/01 04:15:12;;;;;;;44.57;24.20;;;14.20;1.00;;;;;;5048227;28;20946;-82
2023/06/01 04:17:39;;;;;;;46.07;26.40;;;14.30;1.00;;;;;;5043247;28;20481;-80
2023/06/01 04:20:12;;;;;;;44.17;25.10;;;14.30;1.00;;;;;;5035128;28;20457;-81
2023/06/01 04:22:38;;;;;;;55.63;27.90;;;14.30;1.00;;;;;;5040366;28;20469;-80
2023/06/01 04:25:09;;;;;;;58.63;30.90;;;14.30;1.00;;;;;;5047725;28;20435;-82
2023/06/01 04:27:36;;;;;;;70.43;33.10;;;14.30;1.00;;;;;;5048429;28;20516;-82
2023/06/01 04:30:08;;;;;;;69.67;34.80;;;14.30;1.00;;;;;;5044783;28;20473;-82
2023/06/01 04:32:37;;;;;;;75.43;36.83;;;14.30;1.00;;;;;;5042408;28;20432;-81
2023/06/01 04:35:05;;;;;;;77.07;36.33;;;14.30;1.00;;;;;;5037341;28;20437;-82
2023/06/01 04:37:33;;;;;;;72.30;37.60;;;14.30;1.00;;;;;;5044999;28;20461;-82
2023/06/01 04:40:00;;;;;;;75.63;38.73;;;14.40;1.00;;;;;;5028056;28;20556;-81
2023/06/01 04:42:25;;;;;;;73.50;40.83;;;14.40;1.00;;;;;;5039651;28;20441;-81
2023/06/01 04:44:51;;;;;;;85.60;42.37;;;14.50;1.00;;;;;;5043668;28;20444;-82
2023/06/01 04:47:17;;;;;;;69.53;38.40;;;14.60;1.00;;;;;;5030630;28;20225;-81
2023/06/01 04:49:43;;;;;;;77.07;39.00;;;14.60;1.00;;;;;;5046999;28;20194;-81
2023/06/01 04:52:12;;;;;;;70.13;38.00;;;14.70;99.90;;;;;;5048890;28;20178;-82
2023/06/01 04:54:37;;;;;;;77.80;40.50;;;14.70;99.90;;;;;;5039028;28;20437;-80
2023/06/01 04:57:06;;;;;;;69.90;37.43;;;14.80;99.90;;;;;;5039364;28;20452;-81
2023/06/01 04:59:31;;;;;;;79.93;40.67;;;14.80;99.90;;;;;;5026017;28;20185;-81
2023/06/01 05:01:57;;;;;;;72.03;38.37;;;14.80;99.90;;;;;;5047692;28;20443;-80
2023/06/01 05:04:23;;;;;;;63.47;35.13;;;14.80;24.20;;;;;;5024681;28;20455;-82
2023/06/01 05:06:48;;;;;;;65.07;34.10;;;14.80;10.30;;;;;;5042931;28;20578;-82
2023/06/01 05:09:14;;;;;;;60.53;33.20;;;14.80;1.00;;;;;;5029385;28;20202;-81
2023/06/01 05:11:39;;;;;;;53.10;33.47;;;14.80;1.00;;;;;;5027772;28;20218;-82
2023/06/01 05:14:07;;;;;;;50.90;30.80;;;14.80;1.00;;;;;;5037542;28;20239;-81
2023/06/01 05:16:33;;;;;;;60.07;35.23;;;14.80;1.00;;;;;;5026669;28;20213;-82
2023/06/01 05:18:58;;;;;;;53.10;29.93;;;14.80;1.00;;;;;;5045484;28;20568;-81
2023/06/01 05:21:24;;;;;;;55.67;31.90;;;14.80;1.00;;;;;;5047053;28;20254;-80
2023/06/01 05:23:49;;;;;;;56.30;32.37;;;14.80;1.00;;;;;;5043982;28;20248;-81
2023/06/01 05:26:15;;;;;;;49.60;30.20;;;14.70;1.00;;;;;;5022135;28;20201;-81
2023/06/01 05:28:42;;;;;;;45.20;28.07;;;14.90;1.00;;;;;;5033526;28;20215;-78
2023/06/01 05:31:08;;;;;;;43.87;27.80;;;15.00;1.00;;;;;;5040823;28;20663;-78
2023/06/01 05:33:33;;;;;;;49.77;27.93;;;15.00;1.00;;;;;;5041795;28;20447;-79
2023/06/01 05:35:59;;;;;;;44.33;27.27;;;15.20;99.90;;;;;;5046627;28;20195;-80
2023/06/01 05:38:25;;;;;;;48.33;29.63;;;15.30;99.90;;;;;;5029185;28;20290;-79
2023/06/01 05:40:50;;;;;;;44.03;27.60;;;15.30;99.90;;;;;;5046708;28;20423;-79
2023/06/01 05:43:16;;;;;;;47.37;29.63;;;15.30;99.90;;;;;;5042867;28;20566;-80
2023/06/01 05:45:42;;;;;;;45.50;26.77;;;15.40;99.90;;;;;;5037849;28;20207;-81
2023/06/01 05:48:07;;;;;;;41.87;25.97;;;15.50;48.30;;;;;;5027537;28;20189;-79
2023/06/01 05:50:33;;;;;;;40.03;25.40;;;15.60;13.30;;;;;;5043044;28;20216;-79
2023/06/01 05:52:58;;;;;;;35.57;24.37;;;15.70;1.00;;;;;;5036216;28;20208;-80
2023/06/01 05:55:24;;;;;;;37.43;24.00;;;15.80;1.00;;;;;;5031694;28;20695;-77
2023/06/01 05:57:49;;;;;;;42.07;26.00;;;15.80;1.00;;;;;;5037939;28;20194;-81
2023/06/01 06:00:16;;;;;;;32.83;22.20;;;15.90;1.00;;;;;;5043335;28;20200;-80
2023/06/01 06:02:45;;;;;;;43.43;25.10;;;16.00;1.00;;;;;;5040611;28;20248;-78
2023/06/01 06:05:10;;;;;;;31.93;24.50;;;16.10;1.00;;;;;;5040396;28;20474;-81
2023/06/01 06:07:36;;;;;;;32.17;22.77;;;16.20;1.00;;;;;;5023650;28;20870;-77
2023/06/01 06:10:03;;;;;;;41.73;23.63;;;16.40;1.00;;;;;;5017945;28;20675;-78
2023/06/01 06:12:28;;;;;;;41.17;24.70;;;16.60;1.00;;;;;;5020986;28;20192;-80
2023/06/01 06:14:54;;;;;;;43.13;25.60;;;16.70;99.90;;;;;;5017950;28;20432;-80
2023/06/01 06:17:20;;;;;;;36.10;26.27;;;16.70;99.90;;;;;;5023642;28;20718;-79
2023/06/01 06:19:47;;;;;;;34.07;22.87;;;16.70;99.90;;;;;;5042715;28;20177;-80
2023/06/01 06:22:13;;;;;;;38.37;24.70;;;16.70;99.90;;;;;;5035676;28;20186;-80
2023/06/01 06:24:41;;;;;;;32.60;22.27;;;16.90;99.90;;;;;;5037173;28;20428;-79
2023/06/01 06:27:08;;;;;;;32.00;20.33;;;17.20;99.90;;;;;;5034255;28;20198;-78
2023/06/01 06:29:36;;;;;;;31.50;22.53;;;17.30;99.90;;;;;;5021414;28;20488;-79
2023/06/01 06:32:02;;;;;;;33.27;20.70;;;17.40;99.90;;;;;;5027878;28;20464;-81
2023/06/01 06:34:34;;;;;;;28.80;20.07;;;17.50;99.90;;;;;;5035300;28;20430;-81
2023/06/01 06:37:06;;;;;;;30.83;19.90;;;17.50;99.90;;;;;;5030981;28;20451;-80
2023/06/01 06:39:33;;;;;;;25.17;19.77;;;17.60;99.90;;;;;;5029499;28;20461;-81
2023/06/01 06:42:01;;;;;;;26.97;19.50;;;17.80;99.90;;;;;;5027687;28;20479;-81
2023/06/01 06:44:26;;;;;;;33.83;21.33;;;18.00;99.90;;;;;;5033806;28;20449;-79
2023/06/01 06:46:52;;;;;;;27.03;19.57;;;18.30;99.90;;;;;;5043921;28;20460;-81
2023/06/01 06:49:18;;;;;;;26.50;20.20;;;18.70;99.90;;;;;;5041500;28;20186;-81
2023/06/01 06:51:44;;;;;;;28.63;20.80;;;19.00;99.90;;;;;;5026647;28;20203;-81
2023/06/01 06:54:09;;;;;;;33.20;22.83;;;19.80;99.90;;;;;;5027371;28;20418;-79
2023/06/01 06:56:35;;;;;;;31.93;23.80;;;21.70;99.90;;;;;;5027825;28;20623;-81
2023/06/01 06:59:00;;;;;;;30.73;21.80;;;21.80;99.90;;;;;;5029166;28;20179;-79
2023/06/01 07:01:26;;;;;;;28.40;22.07;;;21.90;99.90;;;;;;5023514;28;20193;-81
2023/06/01 07:03:52;;;;;;;27.47;22.43;;;22.30;99.90;;;;;;5020247;28;20180;-80
2023/06/01 07:06:18;;;;;;;27.50;21.77;;;22.40;99.90;;;;;;5044390;28;20517;-78
2023/06/01 07:08:44;;;;;;;25.30;19.50;;;22.70;99.90;;;;;;5044585;28;20661;-80
2023/06/01 07:11:10;;;;;;;26.17;19.03;;;23.40;99.90;;;;;;5022172;28;20465;-78
2023/06/01 07:13:35;;;;;;;20.53;16.80;;;24.20;99.90;;;;;;5017028;28;20185;-79
2023/06/01 07:16:02;;;;;;;21.17;17.00;;;25.30;99.90;;;;;;5035053;28;20488;-79
2023/06/01 07:18:27;;;;;;;19.83;16.50;;;27.20;99.90;;;;;;5039736;28;20565;-82
2023/06/01 07:20:53;;;;;;;20.53;15.83;;;29.70;99.90;;;;;;5034265;28;20509;-81
2023/06/01 07:23:18;;;;;;;17.77;14.83;;;30.70;99.90;;;;;;5039224;28;20212;-81
2023/06/01 07:25:44;;;;;;;17.93;15.90;;;34.00;99.90;;;;;;5040314;28;20283;-80
2023/06/01 07:28:10;;;;;;;15.77;14.27;;;35.10;99.90;;;;;;5040104;28;20216;-81
2023/06/01 07:30:37;;;;;;;15.17;13.67;;;35.40;99.90;;;;;;5042904;28;20224;-79
2023/06/01 07:33:03;;;;;;;16.77;13.47;;;34.70;99.90;;;;;;5041794;28;20189;-80
2023/06/01 07:35:29;;;;;;;16.03;14.33;;;34.70;96.70;;;;;;5043030;28;20433;-80
2023/06/01 07:37:55;;;;;;;15.33;13.10;;;34.40;91.10;;;;;;5038796;28;20265;-81
2023/06/01 07:40:21;;;;;;;13.80;12.40;;;39.00;93.70;;;;;;5037375;28;20187;-81
2023/06/01 07:42:47;;;;;;;13.60;12.30;;;43.10;91.60;;;;;;5037290;28;20448;-77
2023/06/01 07:45:13;;;;;;;12.17;11.07;;;45.10;80.70;;;;;;5039654;28;20189;-80
2023/06/01 07:47:38;;;;;;;13.47;12.07;;;46.80;72.30;;;;;;5023033;28;20277;-80
2023/06/01 07:50:04;;;;;;;12.70;11.40;;;48.00;58.80;;;;;;5039934;28;20182;-80
2023/06/01 07:52:31;;;;;;;13.23;11.20;;;48.90;51.60;;;;;;5017866;28;20182;-81
2023/06/01 07:54:57;;;;;;;12.80;11.57;;;49.90;45.20;;;;;;5041069;28;20423;-80
2023/06/01 07:57:28;;;;;;;11.70;10.80;;;50.50;38.10;;;;;;5042886;28;20456;-80
2023/06/01 07:59:53;;;;;;;11.93;10.83;;;51.00;30.90;;;;;;5033834;28;20177;-81
2023/06/01 08:02:20;;;;;;;12.03;10.90;;;51.20;26.20;;;;;;5026161;28;20465;-82
2023/06/01 08:04:46;;;;;;;11.93;10.83;;;51.70;22.70;;;;;;5043155;28;20173;-80
2023/06/01 08:07:14;;;;;;;12.93;11.53;;;52.10;19.10;;;;;;5035559;28;20222;-80
2023/06/01 08:09:39;;;;;;;13.47;12.27;;;52.20;15.50;;;;;;5040780;28;20189;-79
2023/06/01 08:12:05;;;;;;;13.00;11.90;;;52.40;12.70;;;;;;5041488;28;20208;-81
2023/06/01 08:14:33;;;;;;;12.83;11.57;;;52.70;10.30;;;;;;5041465;28;20265;-80
2023/06/01 08:17:01;;;;;;;12.73;11.70;;;53.20;8.20;;;;;;5027102;28;20185;-82
2023/06/01 08:19:27;;;;;;;12.57;11.35;;;53.40;6.10;;;;;;5039304;28;20178;-80
2023/06/01 08:21:53;;;;;;;13.27;12.07;;;53.60;5.20;;;;;;5039067;28;20232;-81
2023/06/01 08:24:22;;;;;;;12.17;11.17;;;53.20;2.40;;;;;;5033541;28;20246;-81
2023/06/01 08:26:48;;;;;;;12.50;11.20;;;53.10;1.00;;;;;;5023016;28;20194;-81
2023/06/01 08:29:13;;;;;;;12.57;11.40;;;53.00;1.00;;;;;;5036982;28;20189;-81
2023/06/01 08:31:39;;;;;;;12.13;11.03;;;52.80;1.00;;;;;;5044700;28;20174;-81
2023/06/01 08:34:05;;;;;;;12.77;11.67;;;52.60;1.00;;;;;;5042493;28;20678;-80
2023/06/01 08:36:31;;;;;;;13.17;11.90;;;52.30;1.00;;;;;;5033516;28;20205;-81
2023/06/01 08:38:56;;;;;;;12.53;11.50;;;52.40;1.00;;;;;;5011373;28;20766;-80
2023/06/01 08:41:36;;;;;;;14.10;12.80;;;52.50;1.00;;;;;;5029539;28;20209;-81
2023/06/01 08:44:03;;;;;;;13.70;12.60;;;52.40;1.00;;;;;;5044552;28;20238;-81
2023/06/01 08:46:31;;;;;;;12.33;11.40;;;52.70;1.00;;;;;;5028801;28;20209;-81
2023/06/01 08:48:58;;;;;;;14.70;13.40;;;53.00;1.00;;;;;;5043053;28;20243;-81
2023/06/01 08:51:25;;;;;;;13.20;12.20;;;53.10;1.00;;;;;;5028302;28;20182;-80
2023/06/01 08:53:52;;;;;;;13.93;12.80;;;52.60;1.00;;;;;;5037649;28;20438;-79
2023/06/01 08:56:21;;;;;;;13.10;11.90;;;52.40;1.00;;;;;;5043167;28;20210;-83
2023/06/01 08:58:47;;;;;;;12.30;11.00;;;52.30;1.00;;;;;;5037147;28;20450;-80
2023/06/01 09:01:21;;;;;;;12.57;11.27;;;52.20;1.00;;;;;;5042588;28;20548;-83
2023/06/01 09:03:47;;;;;;;12.93;11.73;;;52.00;1.00;;;;;;5048756;28;20174;-81
2023/06/01 09:06:13;;;;;;;12.77;11.57;;;51.60;1.00;;;;;;5033822;28;20464;-81
2023/06/01 09:08:38;;;;;;;12.80;11.70;;;51.50;1.00;;;;;;5041826;28;20508;-80
2023/06/01 09:11:04;;;;;;;11.97;10.80;;;51.30;1.00;;;;;;5049816;28;20178;-80
2023/06/01 09:13:37;;;;;;;12.77;11.77;;;50.80;1.00;;;;;;5045724;28;20470;-80
2023/06/01 09:16:03;;;;;;;13.50;12.10;;;50.20;1.00;;;;;;5047875;28;20216;-81
2023/06/01 09:18:30;;;;;;;13.40;12.10;;;49.90;1.00;;;;;;5046204;28;20440;-80
2023/06/01 09:21:10;;;;;;;13.40;12.20;;;49.80;1.00;;;;;;5046837;28;20463;-80
2023/06/01 09:23:37;;;;;;;11.73;10.83;;;49.90;1.00;;;;;;5029827;28;20416;-81
2023/06/01 09:26:08;;;;;;;13.30;11.17;;;49.90;1.00;;;;;;5024129;28;20528;-81
2023/06/01 09:28:52;;;;;;;12.00;10.90;;;49.60;1.00;;;;;;5038644;28;20435;-80
2023/06/01 09:31:41;;;;;;;16.93;10.70;;;49.40;1.00;;;;;;5037892;28;20453;-80
2023/06/01 09:34:08;;;;;;;12.03;10.83;;;49.20;1.00;;;;;;5045773;28;20420;-82
2023/06/01 09:36:36;;;;;;;11.90;10.83;;;49.00;1.00;;;;;;5041329;28;20424;-81
2023/06/01 09:39:04;;;;;;;11.53;10.43;;;48.90;1.00;;;;;;5044153;28;20440;-82
2023/06/01 09:41:46;;;;;;;11.20;10.00;;;48.80;1.00;;;;;;5039246;28;20486;-83
2023/06/01 09:44:13;;;;;;;12.37;11.17;;;48.90;1.00;;;;;;5043964;28;20436;-84
2023/06/01 09:46:51;;;;;;;11.50;10.50;;;49.00;1.00;;;;;;5045211;28;20456;-79
2023/06/01 09:49:24;;;;;;;11.20;10.20;;;49.10;1.00;;;;;;5039361;28;20436;-80
2023/06/01 09:51:52;;;;;;;11.83;9.77;;;48.70;1.00;;;;;;5039265;28;20488;-81
2023/06/01 09:54:28;;;;;;;12.40;10.70;;;48.40;1.00;;;;;;5040927;28;20977;-82
2023/06/01 09:56:55;;;;;;;12.00;10.33;;;48.30;1.00;;;;;;5029537;28;20460;-81
2023/06/01 09:59:22;;;;;;;11.80;10.53;;;47.90;1.00;;;;;;5036148;28;20441;-81
2023/06/01 10:01:51;;;;;;;13.33;12.00;;;47.40;1.00;;;;;;5025523;28;20472;-79
2023/06/01 10:04:23;;;;;;;12.33;11.30;;;47.10;1.00;;;;;;5038528;28;20511;-78
2023/06/01 10:06:52;;;;;;;12.70;10.80;;;47.10;1.00;;;;;;5038500;28;20866;-81
2023/06/01 10:09:20;;;;;;;15.00;9.60;;;46.90;1.00;;;;;;5039885;28;20511;-80
2023/06/01 10:11:49;;;;;;;12.50;9.97;;;46.90;1.00;;;;;;5025960;28;20496;-80
2023/06/01 10:14:16;;;;;;;9.43;8.47;;;46.70;1.00;;;;;;5039790;28;20489;-83
2023/06/01 10:16:43;;;;;;;9.50;8.50;;;46.70;1.00;;;;;;5028895;28;20520;-82
2023/06/01 10:19:10;;;;;;;13.77;9.70;;;46.30;1.00;;;;;;5046359;28;20492;-82
2023/06/01 10:21:36;;;;;;;10.50;9.47;;;45.90;1.00;;;;;;5040598;28;20460;-84
2023/06/01 10:24:05;;;;;;;10.60;9.10;;;45.60;1.00;;;;;;5029000;28;20463;-82
2023/06/01 10:26:35;;;;;;;9.80;8.90;;;45.40;1.00;;;;;;5043152;28;20457;-83
2023/06/01 10:29:02;;;;;;;10.83;9.77;;;45.10;1.00;;;;;;5041644;28;20426;-84
2023/06/01 10:31:41;;;;;;;10.57;9.57;;;44.90;1.00;;;;;;5031602;28;20437;-82
2023/06/01 10:34:08;;;;;;;10.83;9.60;;;44.70;1.00;;;;;;5028440;28;20429;-82
2023/06/01 10:36:52;;;;;;;11.00;9.20;;;44.60;1.00;;;;;;5045298;28;20463;-83
2023/06/01 10:39:31;;;;;;;15.23;9.83;;;44.60;1.00;;;;;;5038022;28;20459;-83
2023/06/01 10:42:18;;;;;;;10.37;9.30;;;44.40;1.00;;;;;;5040794;28;20473;-83
2023/06/01 10:44:47;;;;;;;10.63;9.53;;;44.40;1.00;;;;;;5042667;28;20471;-82
2023/06/01 10:47:12;;;;;;;11.50;8.50;;;44.40;1.00;;;;;;5045493;28;20480;-80
2023/06/01 10:49:50;;;;;;;9.77;8.50;;;44.10;1.00;;;;;;5026870;28;20463;-83
2023/06/01 10:52:28;;;;;;;10.50;9.40;;;44.10;1.00;;;;;;5041717;28;20186;-81
2023/06/01 10:54:56;;;;;;;11.70;9.20;;;44.10;1.00;;;;;;5038905;28;20482;-83
2023/06/01 10:57:22;;;;;;;13.63;9.63;;;43.90;1.00;;;;;;5042243;28;20460;-81
2023/06/01 11:00:10;;;;;;;9.20;8.30;;;43.80;1.00;;;;;;5033212;28;20449;-82
2023/06/01 11:02:43;;;;;;;11.40;9.53;;;43.70;1.00;;;;;;5041655;28;20448;-83
2023/06/01 11:05:48;;;;;;;11.37;9.20;;;43.50;1.00;;;;;;5046176;28;20524;-82
2023/06/01 11:08:17;;;;;;;11.07;9.07;;;43.50;1.00;;;;;;5028666;28;20910;-82
2023/06/01 11:10:52;;;;;;;9.80;8.90;;;43.30;1.00;;;;;;5046056;28;20437;-83
2023/06/01 11:13:37;;;;;;;11.27;7.97;;;43.30;1.00;;;;;;5047068;28;20452;-82
2023/06/01 11:16:18;;;;;;;11.07;9.47;;;42.90;1.00;;;;;;5044326;28;20444;-83
2023/06/01 11:19:06;;;;;;;14.40;9.83;;;42.70;1.00;;;;;;5042481;28;20436;-83
2023/06/01 11:21:43;;;;;;;11.40;8.90;;;42.40;1.00;;;;;;5029552;28;20479;-83
2023/06/01 11:24:16;;;;;;;11.70;9.50;;;41.90;1.00;;;;;;5041154;28;20440;-82
2023/06/01 11:26:47;;;;;;;9.47;8.50;;;41.70;1.00;;;;;;5030922;28;20544;-83
2023/06/01 11:29:28;;;;;;;12.07;10.00;;;41.60;1.00;;;;;;5032318;28;20803;-84
2023/06/01 11:31:56;;;;;;;13.13;10.23;;;41.60;1.00;;;;;;5041637;28;20464;-82
2023/06/01 11:34:41;;;;;;;12.23;9.53;;;41.30;1.00;;;;;;5026522;28;20507;-83
2023/06/01 11:37:17;;;;;;;14.43;9.23;;;41.00;1.00;;;;;;5041506;28;20450;-84
2023/06/01 11:39:44;;;;;;;15.50;9.97;;;41.10;1.00;;;;;;5037315;28;20436;-82
2023/06/01 11:42:22;;;;;;;11.80;8.87;;;41.10;1.00;;;;;;5041312;28;20468;-84
2023/06/01 11:45:00;;;;;;;13.13;9.00;;;40.90;1.00;;;;;;5023990;28;20452;-80
2023/06/01 11:47:30;;;;;;;12.30;8.50;;;41.00;1.00;;;;;;5043137;28;20453;-82
2023/06/01 11:49:56;;;;;;;11.30;8.20;;;40.90;1.00;;;;;;5040456;28;20435;-80
2023/06/01 11:52:22;;;;;;;10.90;8.80;;;40.90;1.00;;;;;;5039626;28;20433;-81
2023/06/01 11:54:48;;;;;;;11.87;8.67;;;40.90;1.00;;;;;;5042385;28;20196;-82
2023/06/01 11:57:14;;;;;;;13.40;8.80;;;40.80;1.00;;;;;;5042482;28;20198;-81
2023/06/01 11:59:45;;;;;;;12.80;9.27;;;40.70;1.00;;;;;;5044451;28;20487;-81
2023/06/01 12:02:21;;;;;;;10.10;8.43;;;40.30;1.00;;;;;;5039070;28;20576;-80
2023/06/01 12:04:56;;;;;;;11.13;9.00;;;40.20;1.00;;;;;;5044155;28;20424;-81
2023/06/01 12:07:23;;;;;;;12.10;8.30;;;40.00;1.00;;;;;;5041515;28;20532;-83
2023/06/01 12:09:51;;;;;;;12.33;8.90;;;39.90;1.00;;;;;;5035373;28;20411;-84
2023/06/01 12:12:16;;;;;;;15.73;10.50;;;39.80;1.00;;;;;;5041684;28;20502;-81
2023/06/01 12:14:43;;;;;;;13.50;9.67;;;39.20;1.00;;;;;;5021610;28;20448;-80
2023/06/01 12:17:11;;;;;;;12.73;8.60;;;38.80;1.00;;;;;;5026499;28;20225;-82
2023/06/01 12:19:47;;;;;;;10.50;8.47;;;38.80;1.00;;;;;;5045167;28;20436;-81
2023/06/01 12:22:14;;;;;;;9.77;8.23;;;38.90;1.00;;;;;;5042841;28;20484;-81
2023/06/01 12:24:40;;;;;;;9.63;7.53;;;38.90;1.00;;;;;;5027247;28;20443;-80
2023/06/01 12:27:15;;;;;;;8.43;7.60;;;38.80;1.00;;;;;;5046707;28;20535;-80
2023/06/01 12:29:44;;;;;;;9.27;7.70;;;38.90;1.00;;;;;;5037489;28;20180;-82
2023/06/01 12:32:16;;;;;;;9.70;7.63;;;38.90;1.00;;;;;;5024290;28;20441;-83
2023/06/01 12:35:02;;;;;;;11.20;8.77;;;38.70;1.00;;;;;;5019181;28;20432;-82
2023/06/01 12:37:29;;;;;;;9.00;7.93;;;38.60;1.00;;;;;;5035746;28;20449;-83
2023/06/01 12:39:56;;;;;;;12.97;9.77;;;38.40;1.00;;;;;;5026991;28;20437;-85
2023/06/01 12:42:39;;;;;;;12.53;8.70;;;38.20;1.00;;;;;;5027502;28;20447;-84
2023/06/01 12:45:08;;;;;;;11.60;8.70;;;38.00;1.00;;;;;;5042086;28;20471;-84